sensor_id;sensor_type;location;lat;lon;timestamp;P1;durP1;ratioP1;P2;durP2;ratioP2
35478;SDS011;21594;49.794;18.652;2022-07-23T00:00:29;11.35;;;7.22;;
35478;SDS011;21594;49.794;18.652;2022-07-23T00:03:03;13.18;;;8.15;;
35478;SDS011;21594;49.794;18.652;2022-07-23T00:05:33;14.98;;;8.20;;
35478;SDS011;21594;49.794;18.652;2022-07-23T00:07:59;16.73;;;8.20;;
35478;SDS011;21594;49.794;18.652;2022-07-23T00:10:25;16.45;;;8.68;;
35478;SDS011;21594;49.794;18.652;2022-07-23T00:12:52;13.70;;;7.72;;
35478;SDS011;21594;49.794;18.652;2022-07-23T00:15:21;15.55;;;8.80;;
35478;SDS011;21594;49.794;18.652;2022-07-23T00:17:47;14.38;;;8.28;;
35478;SDS011;21594;49.794;18.652;2022-07-23T00:20:31;17.82;;;9.00;;
35478;SDS011;21594;49.794;18.652;2022-07-23T00:23:00;13.08;;;8.03;;
35478;SDS011;21594;49.794;18.652;2022-07-23T00:27:56;9.73;;;8.20;;
35478;SDS011;21594;49.794;18.652;2022-07-23T00:30:24;12.33;;;8.03;;
35478;SDS011;21594;49.794;18.652;2022-07-23T00:32:54;12.23;;;7.42;;
35478;SDS011;21594;49.794;18.652;2022-07-23T00:35:23;11.88;;;7.97;;
35478;SDS011;21594;49.794;18.652;2022-07-23T00:37:52;15.08;;;9.08;;
35478;SDS011;21594;49.794;18.652;2022-07-23T00:40:18;11.48;;;8.63;;
35478;SDS011;21594;49.794;18.652;2022-07-23T00:42:50;13.50;;;8.55;;
35478;SDS011;21594;49.794;18.652;2022-07-23T00:45:17;13.65;;;8.95;;
35478;SDS011;21594;49.794;18.652;2022-07-23T00:50:19;13.78;;;7.92;;
35478;SDS011;21594;49.794;18.652;2022-07-23T00:52:46;9.98;;;7.87;;
35478;SDS011;21594;49.794;18.652;2022-07-23T00:55:13;13.18;;;8.70;;
35478;SDS011;21594;49.794;18.652;2022-07-23T00:57:40;12.68;;;7.67;;
35478;SDS011;21594;49.794;18.652;2022-07-23T01:00:12;13.08;;;8.08;;
35478;SDS011;21594;49.794;18.652;2022-07-23T01:02:40;10.08;;;7.92;;
35478;SDS011;21594;49.794;18.652;2022-07-23T01:05:06;13.62;;;8.55;;
35478;SDS011;21594;49.794;18.652;2022-07-23T01:07:40;11.20;;;7.72;;
35478;SDS011;21594;49.794;18.652;2022-07-23T01:10:09;12.65;;;7.95;;
35478;SDS011;21594;49.794;18.652;2022-07-23T01:12:54;14.07;;;7.72;;
35478;SDS011;21594;49.794;18.652;2022-07-23T01:15:21;10.85;;;7.10;;
35478;SDS011;21594;49.794;18.652;2022-07-23T01:17:47;10.75;;;7.15;;
35478;SDS011;21594;49.794;18.652;2022-07-23T01:20:20;11.95;;;8.30;;
35478;SDS011;21594;49.794;18.652;2022-07-23T01:22:46;12.30;;;8.05;;
35478;SDS011;21594;49.794;18.652;2022-07-23T01:25:19;8.48;;;7.42;;
35478;SDS011;21594;49.794;18.652;2022-07-23T01:27:49;8.60;;;6.80;;
35478;SDS011;21594;49.794;18.652;2022-07-23T01:30:16;10.32;;;6.92;;
35478;SDS011;21594;49.794;18.652;2022-07-23T01:32:42;8.90;;;6.80;;
35478;SDS011;21594;49.794;18.652;2022-07-23T02:45:08;7.42;;;6.65;;
35478;SDS011;21594;49.794;18.652;2022-07-23T02:50:10;9.20;;;7.12;;
35478;SDS011;21594;49.794;18.652;2022-07-23T02:55:09;9.75;;;6.53;;
35478;SDS011;21594;49.794;18.652;2022-07-23T02:57:37;8.00;;;6.60;;
35478;SDS011;21594;49.794;18.652;2022-07-23T03:00:05;9.73;;;6.08;;
35478;SDS011;21594;49.794;18.652;2022-07-23T03:02:33;7.92;;;6.70;;
35478;SDS011;21594;49.794;18.652;2022-07-23T03:04:59;8.60;;;6.58;;
35478;SDS011;21594;49.794;18.652;2022-07-23T03:07:28;8.63;;;6.40;;
35478;SDS011;21594;49.794;18.652;2022-07-23T03:09:55;8.60;;;6.33;;
35478;SDS011;21594;49.794;18.652;2022-07-23T03:14:54;8.05;;;5.42;;
35478;SDS011;21594;49.794;18.652;2022-07-23T03:17:20;10.95;;;7.20;;
35478;SDS011;21594;49.794;18.652;2022-07-23T03:19:48;7.87;;;6.78;;
35478;SDS011;21594;49.794;18.652;2022-07-23T03:22:15;8.05;;;6.25;;
35478;SDS011;21594;49.794;18.652;2022-07-23T03:24:44;8.80;;;6.72;;
35478;SDS011;21594;49.794;18.652;2022-07-23T03:27:20;8.50;;;6.83;;
35478;SDS011;21594;49.794;18.652;2022-07-23T03:32:28;9.40;;;7.25;;
35478;SDS011;21594;49.794;18.652;2022-07-23T03:34:54;9.23;;;6.85;;
35478;SDS011;21594;49.794;18.652;2022-07-23T03:37:24;8.15;;;6.70;;
35478;SDS011;21594;49.794;18.652;2022-07-23T03:39:51;10.38;;;7.28;;
35478;SDS011;21594;49.794;18.652;2022-07-23T03:42:23;10.32;;;7.20;;
35478;SDS011;21594;49.794;18.652;2022-07-23T03:44:54;9.18;;;6.92;;
35478;SDS011;21594;49.794;18.652;2022-07-23T03:47:21;8.88;;;6.97;;
35478;SDS011;21594;49.794;18.652;2022-07-23T03:49:49;9.65;;;6.70;;
35478;SDS011;21594;49.794;18.652;2022-07-23T03:52:19;9.30;;;7.00;;
35478;SDS011;21594;49.794;18.652;2022-07-23T03:54:45;9.58;;;7.03;;
35478;SDS011;21594;49.794;18.652;2022-07-23T03:57:11;9.03;;;6.95;;
35478;SDS011;21594;49.794;18.652;2022-07-23T03:59:37;7.35;;;6.55;;
35478;SDS011;21594;49.794;18.652;2022-07-23T04:02:15;8.63;;;6.75;;
35478;SDS011;21594;49.794;18.652;2022-07-23T04:04:41;10.10;;;6.78;;
35478;SDS011;21594;49.794;18.652;2022-07-23T04:07:08;10.15;;;6.40;;
35478;SDS011;21594;49.794;18.652;2022-07-23T04:09:34;7.58;;;6.75;;
35478;SDS011;21594;49.794;18.652;2022-07-23T04:12:00;8.35;;;6.50;;
35478;SDS011;21594;49.794;18.652;2022-07-23T04:14:27;8.23;;;6.58;;
35478;SDS011;21594;49.794;18.652;2022-07-23T04:16:59;8.48;;;6.53;;
35478;SDS011;21594;49.794;18.652;2022-07-23T04:19:25;7.95;;;6.17;;
35478;SDS011;21594;49.794;18.652;2022-07-23T04:21:58;10.43;;;6.80;;
35478;SDS011;21594;49.794;18.652;2022-07-23T04:24:24;7.33;;;6.45;;
35478;SDS011;21594;49.794;18.652;2022-07-23T04:26:50;10.28;;;5.78;;
35478;SDS011;21594;49.794;18.652;2022-07-23T04:29:17;8.75;;;6.70;;
35478;SDS011;21594;49.794;18.652;2022-07-23T04:31:54;7.37;;;6.55;;
35478;SDS011;21594;49.794;18.652;2022-07-23T04:34:20;8.25;;;6.47;;
35478;SDS011;21594;49.794;18.652;2022-07-23T04:36:47;7.80;;;5.85;;
35478;SDS011;21594;49.794;18.652;2022-07-23T04:39:14;6.92;;;6.22;;
35478;SDS011;21594;49.794;18.652;2022-07-23T04:46:38;8.58;;;6.28;;
35478;SDS011;21594;49.794;18.652;2022-07-23T04:49:05;8.25;;;6.72;;
35478;SDS011;21594;49.794;18.652;2022-07-23T04:51:31;7.87;;;6.87;;
35478;SDS011;21594;49.794;18.652;2022-07-23T04:54:00;7.95;;;6.12;;
35478;SDS011;21594;49.794;18.652;2022-07-23T04:56:27;9.38;;;6.45;;
35478;SDS011;21594;49.794;18.652;2022-07-23T04:58:53;7.25;;;6.08;;
35478;SDS011;21594;49.794;18.652;2022-07-23T05:01:21;9.28;;;6.10;;
35478;SDS011;21594;49.794;18.652;2022-07-23T05:03:47;7.90;;;6.20;;
35478;SDS011;21594;49.794;18.652;2022-07-23T05:06:32;7.90;;;6.42;;
35478;SDS011;21594;49.794;18.652;2022-07-23T05:09:01;7.65;;;6.67;;
35478;SDS011;21594;49.794;18.652;2022-07-23T05:11:27;7.45;;;6.75;;
35478;SDS011;21594;49.794;18.652;2022-07-23T05:14:02;7.08;;;6.05;;
35478;SDS011;21594;49.794;18.652;2022-07-23T05:16:28;8.20;;;6.67;;
35478;SDS011;21594;49.794;18.652;2022-07-23T05:18:54;8.70;;;6.67;;
35478;SDS011;21594;49.794;18.652;2022-07-23T05:21:20;8.38;;;5.78;;
35478;SDS011;21594;49.794;18.652;2022-07-23T05:23:51;7.87;;;6.60;;
35478;SDS011;21594;49.794;18.652;2022-07-23T05:26:17;10.93;;;6.75;;
35478;SDS011;21594;49.794;18.652;2022-07-23T05:28:43;8.08;;;6.62;;
35478;SDS011;21594;49.794;18.652;2022-07-23T05:33:58;11.73;;;7.12;;
35478;SDS011;21594;49.794;18.652;2022-07-23T05:36:25;6.97;;;6.28;;
35478;SDS011;21594;49.794;18.652;2022-07-23T05:41:24;10.18;;;7.00;;
35478;SDS011;21594;49.794;18.652;2022-07-23T05:43:57;8.15;;;6.40;;
35478;SDS011;21594;49.794;18.652;2022-07-23T05:46:26;9.45;;;6.42;;
35478;SDS011;21594;49.794;18.652;2022-07-23T05:48:53;9.78;;;6.37;;
35478;SDS011;21594;49.794;18.652;2022-07-23T05:51:20;8.33;;;6.22;;
35478;SDS011;21594;49.794;18.652;2022-07-23T05:56:17;9.58;;;6.42;;
35478;SDS011;21594;49.794;18.652;2022-07-23T05:58:50;9.15;;;7.42;;
35478;SDS011;21594;49.794;18.652;2022-07-23T06:01:17;8.60;;;6.87;;
35478;SDS011;21594;49.794;18.652;2022-07-23T06:03:43;9.95;;;7.40;;
35478;SDS011;21594;49.794;18.652;2022-07-23T06:06:09;10.70;;;7.20;;
35478;SDS011;21594;49.794;18.652;2022-07-23T06:08:35;12.82;;;7.37;;
35478;SDS011;21594;49.794;18.652;2022-07-23T06:11:07;11.00;;;7.78;;
35478;SDS011;21594;49.794;18.652;2022-07-23T06:13:43;10.23;;;7.12;;
35478;SDS011;21594;49.794;18.652;2022-07-23T06:16:11;11.03;;;6.92;;
35478;SDS011;21594;49.794;18.652;2022-07-23T06:18:43;10.13;;;7.08;;
35478;SDS011;21594;49.794;18.652;2022-07-23T06:21:09;11.10;;;7.10;;
35478;SDS011;21594;49.794;18.652;2022-07-23T06:23:36;10.23;;;6.67;;
35478;SDS011;21594;49.794;18.652;2022-07-23T06:28:47;7.20;;;6.50;;
35478;SDS011;21594;49.794;18.652;2022-07-23T08:47:22;9.70;;;6.78;;
35478;SDS011;21594;49.794;18.652;2022-07-23T08:52:22;8.58;;;6.92;;
35478;SDS011;21594;49.794;18.652;2022-07-23T08:54:46;9.38;;;6.78;;
35478;SDS011;21594;49.794;18.652;2022-07-23T08:57:13;8.73;;;6.22;;
35478;SDS011;21594;49.794;18.652;2022-07-23T08:59:41;8.13;;;6.08;;
35478;SDS011;21594;49.794;18.652;2022-07-23T09:02:07;8.88;;;6.92;;
35478;SDS011;21594;49.794;18.652;2022-07-23T09:04:34;10.80;;;6.87;;
35478;SDS011;21594;49.794;18.652;2022-07-23T09:07:01;8.50;;;6.22;;
35478;SDS011;21594;49.794;18.652;2022-07-23T09:09:28;8.30;;;6.80;;
35478;SDS011;21594;49.794;18.652;2022-07-23T09:12:06;7.67;;;6.10;;
35478;SDS011;21594;49.794;18.652;2022-07-23T09:14:42;9.73;;;6.17;;
35478;SDS011;21594;49.794;18.652;2022-07-23T09:19:40;8.25;;;6.20;;
35478;SDS011;21594;49.794;18.652;2022-07-23T09:22:18;6.20;;;5.60;;
35478;SDS011;21594;49.794;18.652;2022-07-23T09:27:55;8.30;;;5.85;;
35478;SDS011;21594;49.794;18.652;2022-07-23T09:30:27;9.93;;;6.05;;
35478;SDS011;21594;49.794;18.652;2022-07-23T09:33:04;7.58;;;5.80;;
35478;SDS011;21594;49.794;18.652;2022-07-23T09:35:54;7.85;;;5.62;;
35478;SDS011;21594;49.794;18.652;2022-07-23T09:38:29;6.65;;;5.92;;
35478;SDS011;21594;49.794;18.652;2022-07-23T09:41:05;6.90;;;5.50;;
35478;SDS011;21594;49.794;18.652;2022-07-23T09:43:41;8.27;;;6.37;;
35478;SDS011;21594;49.794;18.652;2022-07-23T09:46:21;7.08;;;5.50;;
35478;SDS011;21594;49.794;18.652;2022-07-23T09:48:50;9.50;;;6.03;;
35478;SDS011;21594;49.794;18.652;2022-07-23T09:51:17;7.17;;;5.55;;
35478;SDS011;21594;49.794;18.652;2022-07-23T09:53:52;8.63;;;5.95;;
35478;SDS011;21594;49.794;18.652;2022-07-23T09:56:18;6.03;;;5.42;;
35478;SDS011;21594;49.794;18.652;2022-07-23T09:58:48;6.33;;;5.05;;
35478;SDS011;21594;49.794;18.652;2022-07-23T10:01:18;7.00;;;5.00;;
35478;SDS011;21594;49.794;18.652;2022-07-23T10:03:48;6.25;;;5.65;;
35478;SDS011;21594;49.794;18.652;2022-07-23T10:06:18;5.75;;;5.25;;
35478;SDS011;21594;49.794;18.652;2022-07-23T10:08:44;7.45;;;5.37;;
35478;SDS011;21594;49.794;18.652;2022-07-23T10:11:20;5.10;;;4.60;;
35478;SDS011;21594;49.794;18.652;2022-07-23T10:13:46;6.20;;;5.60;;
35478;SDS011;21594;49.794;18.652;2022-07-23T10:16:20;6.90;;;5.10;;
35478;SDS011;21594;49.794;18.652;2022-07-23T10:18:48;6.83;;;5.45;;
35478;SDS011;21594;49.794;18.652;2022-07-23T10:24:04;7.35;;;5.17;;
35478;SDS011;21594;49.794;18.652;2022-07-23T10:40:33;6.37;;;4.87;;
35478;SDS011;21594;49.794;18.652;2022-07-23T10:43:03;6.65;;;5.15;;
35478;SDS011;21594;49.794;18.652;2022-07-23T10:45:33;7.08;;;5.30;;
35478;SDS011;21594;49.794;18.652;2022-07-23T10:59:22;6.95;;;5.47;;
35478;SDS011;21594;49.794;18.652;2022-07-23T11:01:54;4.97;;;4.58;;
35478;SDS011;21594;49.794;18.652;2022-07-23T11:04:48;5.20;;;4.62;;
35478;SDS011;21594;49.794;18.652;2022-07-23T11:07:18;6.83;;;5.00;;
35478;SDS011;21594;49.794;18.652;2022-07-23T11:09:46;6.35;;;5.60;;
35478;SDS011;21594;49.794;18.652;2022-07-23T11:15:00;7.60;;;5.80;;
35478;SDS011;21594;49.794;18.652;2022-07-23T11:17:37;5.97;;;5.37;;
35478;SDS011;21594;49.794;18.652;2022-07-23T11:20:13;6.17;;;5.58;;
35478;SDS011;21594;49.794;18.652;2022-07-23T11:28:17;6.97;;;6.15;;
35478;SDS011;21594;49.794;18.652;2022-07-23T11:30:48;6.95;;;5.12;;
35478;SDS011;21594;49.794;18.652;2022-07-23T11:35:42;7.85;;;5.70;;
35478;SDS011;21594;49.794;18.652;2022-07-23T11:38:13;6.62;;;5.90;;
35478;SDS011;21594;49.794;18.652;2022-07-23T11:40:41;6.58;;;5.47;;
35478;SDS011;21594;49.794;18.652;2022-07-23T11:43:09;6.25;;;5.45;;
35478;SDS011;21594;49.794;18.652;2022-07-23T11:45:37;5.85;;;5.25;;
35478;SDS011;21594;49.794;18.652;2022-07-23T11:48:06;6.42;;;4.97;;
35478;SDS011;21594;49.794;18.652;2022-07-23T11:50:36;6.35;;;5.42;;
35478;SDS011;21594;49.794;18.652;2022-07-23T11:53:03;7.58;;;5.72;;
35478;SDS011;21594;49.794;18.652;2022-07-23T11:55:29;5.85;;;5.30;;
35478;SDS011;21594;49.794;18.652;2022-07-23T11:57:55;6.17;;;5.60;;
35478;SDS011;21594;49.794;18.652;2022-07-23T12:00:25;5.75;;;5.25;;
35478;SDS011;21594;49.794;18.652;2022-07-23T12:02:58;6.25;;;5.47;;
35478;SDS011;21594;49.794;18.652;2022-07-23T12:05:27;7.42;;;5.72;;
35478;SDS011;21594;49.794;18.652;2022-07-23T12:07:59;5.90;;;5.25;;
35478;SDS011;21594;49.794;18.652;2022-07-23T12:10:48;7.95;;;5.58;;
35478;SDS011;21594;49.794;18.652;2022-07-23T12:13:08;5.87;;;5.33;;
35478;SDS011;21594;49.794;18.652;2022-07-23T12:15:42;6.97;;;5.62;;
35478;SDS011;21594;49.794;18.652;2022-07-23T12:18:11;6.12;;;5.53;;
35478;SDS011;21594;49.794;18.652;2022-07-23T12:20:40;6.40;;;5.42;;
35478;SDS011;21594;49.794;18.652;2022-07-23T12:23:12;8.28;;;5.30;;
35478;SDS011;21594;49.794;18.652;2022-07-23T12:25:49;6.58;;;5.92;;
35478;SDS011;21594;49.794;18.652;2022-07-23T12:28:18;7.12;;;5.90;;
35478;SDS011;21594;49.794;18.652;2022-07-23T12:33:26;7.80;;;5.30;;
35478;SDS011;21594;49.794;18.652;2022-07-23T12:35:56;8.35;;;6.15;;
35478;SDS011;21594;49.794;18.652;2022-07-23T12:38:38;7.85;;;5.58;;
35478;SDS011;21594;49.794;18.652;2022-07-23T12:40:57;7.72;;;5.40;;
35478;SDS011;21594;49.794;18.652;2022-07-23T12:43:27;8.33;;;6.08;;
35478;SDS011;21594;49.794;18.652;2022-07-23T12:45:56;6.53;;;5.87;;
35478;SDS011;21594;49.794;18.652;2022-07-23T12:48:26;6.58;;;5.10;;
35478;SDS011;21594;49.794;18.652;2022-07-23T12:51:01;6.33;;;5.55;;
35478;SDS011;21594;49.794;18.652;2022-07-23T12:53:33;8.10;;;6.35;;
35478;SDS011;21594;49.794;18.652;2022-07-23T12:56:06;7.67;;;5.78;;
35478;SDS011;21594;49.794;18.652;2022-07-23T12:58:50;6.65;;;5.75;;
35478;SDS011;21594;49.794;18.652;2022-07-23T13:01:25;6.65;;;5.30;;
35478;SDS011;21594;49.794;18.652;2022-07-23T13:06:38;5.83;;;5.25;;
35478;SDS011;21594;49.794;18.652;2022-07-23T13:09:09;7.05;;;5.90;;
35478;SDS011;21594;49.794;18.652;2022-07-23T13:11:40;6.65;;;6.05;;
35478;SDS011;21594;49.794;18.652;2022-07-23T13:14:13;8.10;;;5.62;;
35478;SDS011;21594;49.794;18.652;2022-07-23T13:16:46;7.58;;;6.08;;
35478;SDS011;21594;49.794;18.652;2022-07-23T13:19:12;7.60;;;5.53;;
35478;SDS011;21594;49.794;18.652;2022-07-23T13:21:40;6.97;;;6.17;;
35478;SDS011;21594;49.794;18.652;2022-07-23T13:24:09;6.60;;;6.00;;
35478;SDS011;21594;49.794;18.652;2022-07-23T13:26:46;6.90;;;5.95;;
35478;SDS011;21594;49.794;18.652;2022-07-23T13:29:15;6.97;;;6.05;;
35478;SDS011;21594;49.794;18.652;2022-07-23T13:31:41;7.62;;;6.08;;
35478;SDS011;21594;49.794;18.652;2022-07-23T13:34:09;7.87;;;5.95;;
35478;SDS011;21594;49.794;18.652;2022-07-23T13:36:35;8.95;;;5.78;;
35478;SDS011;21594;49.794;18.652;2022-07-23T13:39:02;7.42;;;5.60;;
35478;SDS011;21594;49.794;18.652;2022-07-23T13:41:37;7.80;;;6.15;;
35478;SDS011;21594;49.794;18.652;2022-07-23T13:44:03;6.92;;;5.70;;
35478;SDS011;21594;49.794;18.652;2022-07-23T13:46:30;6.50;;;5.90;;
35478;SDS011;21594;49.794;18.652;2022-07-23T13:48:56;8.95;;;5.78;;
35478;SDS011;21594;49.794;18.652;2022-07-23T13:51:23;8.28;;;6.05;;
35478;SDS011;21594;49.794;18.652;2022-07-23T13:53:50;6.80;;;5.87;;
35478;SDS011;21594;49.794;18.652;2022-07-23T13:56:16;7.55;;;6.03;;
35478;SDS011;21594;49.794;18.652;2022-07-23T13:58:42;7.22;;;5.87;;
35478;SDS011;21594;49.794;18.652;2022-07-23T14:01:09;8.38;;;5.65;;
35478;SDS011;21594;49.794;18.652;2022-07-23T14:03:35;8.18;;;6.00;;
35478;SDS011;21594;49.794;18.652;2022-07-23T14:06:01;6.75;;;5.97;;
35478;SDS011;21594;49.794;18.652;2022-07-23T14:08:27;8.78;;;6.12;;
35478;SDS011;21594;49.794;18.652;2022-07-23T14:13:26;7.05;;;5.37;;
35478;SDS011;21594;49.794;18.652;2022-07-23T14:15:58;6.95;;;5.72;;
35478;SDS011;21594;49.794;18.652;2022-07-23T14:18:26;7.08;;;6.03;;
35478;SDS011;21594;49.794;18.652;2022-07-23T14:20:54;8.70;;;6.90;;
35478;SDS011;21594;49.794;18.652;2022-07-23T14:23:20;6.62;;;5.65;;
35478;SDS011;21594;49.794;18.652;2022-07-23T14:25:46;6.62;;;5.58;;
35478;SDS011;21594;49.794;18.652;2022-07-23T14:28:13;7.97;;;6.03;;
35478;SDS011;21594;49.794;18.652;2022-07-23T14:30:39;6.25;;;5.65;;
35478;SDS011;21594;49.794;18.652;2022-07-23T14:33:12;7.08;;;5.87;;
35478;SDS011;21594;49.794;18.652;2022-07-23T14:35:40;7.42;;;5.70;;
35478;SDS011;21594;49.794;18.652;2022-07-23T14:40:43;8.80;;;5.85;;
35478;SDS011;21594;49.794;18.652;2022-07-23T14:43:15;7.70;;;5.47;;
35478;SDS011;21594;49.794;18.652;2022-07-23T14:45:41;7.65;;;5.95;;
35478;SDS011;21594;49.794;18.652;2022-07-23T14:48:17;8.88;;;4.95;;
35478;SDS011;21594;49.794;18.652;2022-07-23T14:50:43;7.37;;;5.70;;
35478;SDS011;21594;49.794;18.652;2022-07-23T14:53:09;9.33;;;5.80;;
35478;SDS011;21594;49.794;18.652;2022-07-23T14:58:05;9.18;;;5.92;;
35478;SDS011;21594;49.794;18.652;2022-07-23T15:00:31;7.15;;;6.08;;
35478;SDS011;21594;49.794;18.652;2022-07-23T15:03:08;7.62;;;5.58;;
35478;SDS011;21594;49.794;18.652;2022-07-23T15:05:32;7.40;;;5.40;;
35478;SDS011;21594;49.794;18.652;2022-07-23T15:07:58;8.13;;;5.37;;
35478;SDS011;21594;49.794;18.652;2022-07-23T15:10:26;8.10;;;5.45;;
35478;SDS011;21594;49.794;18.652;2022-07-23T15:12:54;6.40;;;5.05;;
35478;SDS011;21594;49.794;18.652;2022-07-23T15:15:20;5.53;;;5.03;;
35478;SDS011;21594;49.794;18.652;2022-07-23T15:17:46;5.45;;;4.95;;
35478;SDS011;21594;49.794;18.652;2022-07-23T15:20:13;7.95;;;5.03;;
35478;SDS011;21594;49.794;18.652;2022-07-23T15:22:46;7.83;;;4.78;;
35478;SDS011;21594;49.794;18.652;2022-07-23T15:25:13;5.72;;;4.40;;
35478;SDS011;21594;49.794;18.652;2022-07-23T15:27:42;6.28;;;4.85;;
35478;SDS011;21594;49.794;18.652;2022-07-23T15:30:09;5.97;;;5.37;;
35478;SDS011;21594;49.794;18.652;2022-07-23T15:32:35;5.60;;;4.85;;
35478;SDS011;21594;49.794;18.652;2022-07-23T15:35:02;8.38;;;5.53;;
35478;SDS011;21594;49.794;18.652;2022-07-23T15:37:36;9.53;;;5.58;;
35478;SDS011;21594;49.794;18.652;2022-07-23T15:40:02;11.20;;;5.92;;
35478;SDS011;21594;49.794;18.652;2022-07-23T15:42:32;7.78;;;5.05;;
35478;SDS011;21594;49.794;18.652;2022-07-23T15:44:58;10.28;;;5.53;;
35478;SDS011;21594;49.794;18.652;2022-07-23T15:50:02;7.53;;;6.40;;
35478;SDS011;21594;49.794;18.652;2022-07-23T15:52:33;8.15;;;5.08;;
35478;SDS011;21594;49.794;18.652;2022-07-23T15:54:59;9.30;;;6.35;;
35478;SDS011;21594;49.794;18.652;2022-07-23T15:57:27;8.53;;;6.15;;
35478;SDS011;21594;49.794;18.652;2022-07-23T16:02:24;9.53;;;5.97;;
35478;SDS011;21594;49.794;18.652;2022-07-23T16:04:54;8.20;;;5.62;;
35478;SDS011;21594;49.794;18.652;2022-07-23T16:07:20;10.28;;;6.78;;
35478;SDS011;21594;49.794;18.652;2022-07-23T16:09:55;10.82;;;6.17;;
35478;SDS011;21594;49.794;18.652;2022-07-23T16:12:21;7.22;;;5.78;;
35478;SDS011;21594;49.794;18.652;2022-07-23T16:14:47;8.53;;;6.33;;
35478;SDS011;21594;49.794;18.652;2022-07-23T16:17:14;10.23;;;7.10;;
35478;SDS011;21594;49.794;18.652;2022-07-23T16:19:40;10.85;;;6.42;;
35478;SDS011;21594;49.794;18.652;2022-07-23T16:22:06;9.85;;;6.95;;
35478;SDS011;21594;49.794;18.652;2022-07-23T16:24:38;8.88;;;6.80;;
35478;SDS011;21594;49.794;18.652;2022-07-23T16:27:05;8.30;;;5.83;;
35478;SDS011;21594;49.794;18.652;2022-07-23T16:29:31;9.28;;;6.30;;
35478;SDS011;21594;49.794;18.652;2022-07-23T16:31:58;10.55;;;6.60;;
35478;SDS011;21594;49.794;18.652;2022-07-23T16:34:24;8.23;;;6.78;;
35478;SDS011;21594;49.794;18.652;2022-07-23T16:36:51;9.08;;;7.05;;
35478;SDS011;21594;49.794;18.652;2022-07-23T16:39:17;9.00;;;6.67;;
35478;SDS011;21594;49.794;18.652;2022-07-23T16:41:45;7.10;;;6.03;;
35478;SDS011;21594;49.794;18.652;2022-07-23T16:44:11;10.10;;;7.05;;
35478;SDS011;21594;49.794;18.652;2022-07-23T16:46:37;9.08;;;6.58;;
35478;SDS011;21594;49.794;18.652;2022-07-23T16:49:04;10.05;;;6.60;;
35478;SDS011;21594;49.794;18.652;2022-07-23T16:51:35;12.28;;;6.95;;
35478;SDS011;21594;49.794;18.652;2022-07-23T16:54:02;8.00;;;6.62;;
35478;SDS011;21594;49.794;18.652;2022-07-23T16:56:28;10.70;;;6.85;;
35478;SDS011;21594;49.794;18.652;2022-07-23T16:58:55;9.08;;;6.90;;
35478;SDS011;21594;49.794;18.652;2022-07-23T17:01:21;9.60;;;6.45;;
35478;SDS011;21594;49.794;18.652;2022-07-23T17:03:47;7.35;;;6.65;;
35478;SDS011;21594;49.794;18.652;2022-07-23T17:06:14;12.68;;;7.47;;
35478;SDS011;21594;49.794;18.652;2022-07-23T17:08:41;11.75;;;8.13;;
35478;SDS011;21594;49.794;18.652;2022-07-23T17:11:21;11.93;;;7.15;;
35478;SDS011;21594;49.794;18.652;2022-07-23T17:13:47;8.58;;;7.08;;
35478;SDS011;21594;49.794;18.652;2022-07-23T17:16:13;10.72;;;8.38;;
35478;SDS011;21594;49.794;18.652;2022-07-23T17:18:50;12.63;;;10.78;;
35478;SDS011;21594;49.794;18.652;2022-07-23T17:21:17;13.95;;;10.03;;
35478;SDS011;21594;49.794;18.652;2022-07-23T17:23:44;10.25;;;7.55;;
35478;SDS011;21594;49.794;18.652;2022-07-23T17:31:21;8.60;;;7.22;;
35478;SDS011;21594;49.794;18.652;2022-07-23T17:33:47;12.85;;;7.85;;
35478;SDS011;21594;49.794;18.652;2022-07-23T17:36:14;10.75;;;8.03;;
35478;SDS011;21594;49.794;18.652;2022-07-23T17:38:55;9.85;;;8.33;;
35478;SDS011;21594;49.794;18.652;2022-07-23T17:41:27;10.28;;;7.45;;
35478;SDS011;21594;49.794;18.652;2022-07-23T17:48:59;11.08;;;7.40;;
35478;SDS011;21594;49.794;18.652;2022-07-23T17:51:27;10.28;;;6.85;;
35478;SDS011;21594;49.794;18.652;2022-07-23T17:53:54;12.20;;;7.55;;
35478;SDS011;21594;49.794;18.652;2022-07-23T17:56:20;12.43;;;8.08;;
35478;SDS011;21594;49.794;18.652;2022-07-23T17:58:53;11.83;;;8.35;;
35478;SDS011;21594;49.794;18.652;2022-07-23T18:03:53;16.25;;;8.60;;
35478;SDS011;21594;49.794;18.652;2022-07-23T18:06:20;11.35;;;7.95;;
35478;SDS011;21594;49.794;18.652;2022-07-23T18:08:50;11.83;;;7.72;;
35478;SDS011;21594;49.794;18.652;2022-07-23T18:11:16;13.37;;;7.83;;
35478;SDS011;21594;49.794;18.652;2022-07-23T18:13:44;11.60;;;7.50;;
35478;SDS011;21594;49.794;18.652;2022-07-23T18:16:11;10.82;;;7.60;;
35478;SDS011;21594;49.794;18.652;2022-07-23T18:18:38;10.53;;;7.50;;
35478;SDS011;21594;49.794;18.652;2022-07-23T18:21:05;11.60;;;7.25;;
35478;SDS011;21594;49.794;18.652;2022-07-23T18:23:31;7.97;;;7.03;;
35478;SDS011;21594;49.794;18.652;2022-07-23T18:26:02;9.05;;;7.42;;
35478;SDS011;21594;49.794;18.652;2022-07-23T18:28:34;13.03;;;7.15;;
35478;SDS011;21594;49.794;18.652;2022-07-23T18:31:00;10.90;;;7.70;;
35478;SDS011;21594;49.794;18.652;2022-07-23T18:33:31;9.98;;;7.70;;
35478;SDS011;21594;49.794;18.652;2022-07-23T18:35:58;10.38;;;7.15;;
35478;SDS011;21594;49.794;18.652;2022-07-23T18:38:24;9.98;;;7.95;;
35478;SDS011;21594;49.794;18.652;2022-07-23T18:40:51;10.50;;;7.67;;
35478;SDS011;21594;49.794;18.652;2022-07-23T18:43:21;11.73;;;7.95;;
35478;SDS011;21594;49.794;18.652;2022-07-23T18:45:47;12.55;;;8.60;;
35478;SDS011;21594;49.794;18.652;2022-07-23T18:48:15;12.88;;;8.55;;
35478;SDS011;21594;49.794;18.652;2022-07-23T18:50:46;8.78;;;7.67;;
35478;SDS011;21594;49.794;18.652;2022-07-23T18:53:12;9.93;;;7.62;;
35478;SDS011;21594;49.794;18.652;2022-07-23T18:55:39;12.98;;;8.23;;
35478;SDS011;21594;49.794;18.652;2022-07-23T19:00:35;14.18;;;8.48;;
35478;SDS011;21594;49.794;18.652;2022-07-23T19:03:03;10.05;;;7.83;;
35478;SDS011;21594;49.794;18.652;2022-07-23T19:05:30;13.98;;;8.13;;
35478;SDS011;21594;49.794;18.652;2022-07-23T19:07:56;10.08;;;8.18;;
35478;SDS011;21594;49.794;18.652;2022-07-23T19:10:23;13.22;;;7.85;;
35478;SDS011;21594;49.794;18.652;2022-07-23T19:12:49;15.15;;;8.70;;
35478;SDS011;21594;49.794;18.652;2022-07-23T19:15:15;10.70;;;7.75;;
35478;SDS011;21594;49.794;18.652;2022-07-23T19:17:51;10.93;;;7.80;;
35478;SDS011;21594;49.794;18.652;2022-07-23T19:20:17;11.20;;;7.75;;
35478;SDS011;21594;49.794;18.652;2022-07-23T19:22:43;12.95;;;8.15;;
35478;SDS011;21594;49.794;18.652;2022-07-23T19:25:10;11.20;;;7.75;;
35478;SDS011;21594;49.794;18.652;2022-07-23T19:27:37;11.03;;;7.70;;
35478;SDS011;21594;49.794;18.652;2022-07-23T19:30:07;11.68;;;7.67;;
35478;SDS011;21594;49.794;18.652;2022-07-23T19:32:35;11.75;;;8.20;;
35478;SDS011;21594;49.794;18.652;2022-07-23T19:35:02;11.95;;;8.70;;
35478;SDS011;21594;49.794;18.652;2022-07-23T19:37:35;10.72;;;7.97;;
35478;SDS011;21594;49.794;18.652;2022-07-23T19:40:08;10.88;;;8.20;;
35478;SDS011;21594;49.794;18.652;2022-07-23T19:42:35;10.43;;;8.38;;
35478;SDS011;21594;49.794;18.652;2022-07-23T19:45:02;13.32;;;8.50;;
35478;SDS011;21594;49.794;18.652;2022-07-23T19:47:30;12.90;;;8.20;;
35478;SDS011;21594;49.794;18.652;2022-07-23T19:49:56;9.98;;;8.10;;
35478;SDS011;21594;49.794;18.652;2022-07-23T19:52:22;11.75;;;8.65;;
35478;SDS011;21594;49.794;18.652;2022-07-23T19:54:48;12.75;;;8.93;;
35478;SDS011;21594;49.794;18.652;2022-07-23T19:57:18;12.28;;;8.25;;